Akron, Michigan
Current Conditions -  °F | °C
As of 5:55 AM on Monday 20 Oct 2014 (Local Time) from KCFS Reporting Station
Drizzle Drizzle  
Wind Chill:   Ceiling: 4300
Heat Index:   Visibility: 10mi
Dew Point:   Wind: 8mph
Humidity: 90%   Direction: 210°SSW
Pressure: 29.83"   Gusts: NA
Location:  43.57°N, 83.51°W
Report Text: KCFS 200955Z AUTO 21007KT 10SM -DZ OVC043 08/07 A2983 RMK AO2 T00810066
Loading
Personal Weather Stations






























Interactive Weather Map
Tropical Storm Tracking
New forecast layout! Learn more

10-Day Weather Forecast

Advertisements
Track Severe Weather on mobile